sensor_id;sensor_type;location;lat;lon;timestamp;temperature;humidity
19665;DHT22;9980;51.020;7.772;2022-10-17T00:00:56;15.00;99.90
19665;DHT22;9980;51.020;7.772;2022-10-17T00:03:23;15.00;99.90
19665;DHT22;9980;51.020;7.772;2022-10-17T00:05:50;15.00;99.90
19665;DHT22;9980;51.020;7.772;2022-10-17T00:08:18;15.00;99.90
19665;DHT22;9980;51.020;7.772;2022-10-17T00:10:53;15.00;99.90
19665;DHT22;9980;51.020;7.772;2022-10-17T00:13:25;15.00;99.90
19665;DHT22;9980;51.020;7.772;2022-10-17T00:15:52;15.10;99.90
19665;DHT22;9980;51.020;7.772;2022-10-17T00:18:20;15.10;99.90
19665;DHT22;9980;51.020;7.772;2022-10-17T00:20:47;15.10;99.90
19665;DHT22;9980;51.020;7.772;2022-10-17T00:23:14;15.10;99.90
19665;DHT22;9980;51.020;7.772;2022-10-17T00:25:41;15.10;99.90
19665;DHT22;9980;51.020;7.772;2022-10-17T00:28:13;15.10;99.90
19665;DHT22;9980;51.020;7.772;2022-10-17T00:30:41;15.10;99.90
19665;DHT22;9980;51.020;7.772;2022-10-17T00:33:07;15.10;99.90
19665;DHT22;9980;51.020;7.772;2022-10-17T00:35:34;15.20;99.90
19665;DHT22;9980;51.020;7.772;2022-10-17T00:38:01;15.20;99.90
19665;DHT22;9980;51.020;7.772;2022-10-17T00:40:28;15.20;99.90
19665;DHT22;9980;51.020;7.772;2022-10-17T00:42:55;15.20;99.90
19665;DHT22;9980;51.020;7.772;2022-10-17T00:45:25;15.20;99.90
19665;DHT22;9980;51.020;7.772;2022-10-17T00:48:13;15.20;99.90
19665;DHT22;9980;51.020;7.772;2022-10-17T00:50:47;15.20;99.90
19665;DHT22;9980;51.020;7.772;2022-10-17T00:53:16;15.20;99.90
19665;DHT22;9980;51.020;7.772;2022-10-17T00:55:49;15.30;99.90
19665;DHT22;9980;51.020;7.772;2022-10-17T00:58:19;15.30;99.90
19665;DHT22;9980;51.020;7.772;2022-10-17T01:00:47;15.30;99.90
19665;DHT22;9980;51.020;7.772;2022-10-17T01:03:14;15.30;99.90
19665;DHT22;9980;51.020;7.772;2022-10-17T01:05:42;15.40;99.90
19665;DHT22;9980;51.020;7.772;2022-10-17T01:08:10;15.50;99.90
19665;DHT22;9980;51.020;7.772;2022-10-17T01:11:08;15.50;99.90
19665;DHT22;9980;51.020;7.772;2022-10-17T01:16:44;15.60;99.90
19665;DHT22;9980;51.020;7.772;2022-10-17T01:19:54;15.60;99.90
19665;DHT22;9980;51.020;7.772;2022-10-17T01:22:46;15.70;99.90
19665;DHT22;9980;51.020;7.772;2022-10-17T01:31:24;15.80;99.90
19665;DHT22;9980;51.020;7.772;2022-10-17T01:34:18;15.80;99.90
19665;DHT22;9980;51.020;7.772;2022-10-17T01:37:05;15.90;99.90
19665;DHT22;9980;51.020;7.772;2022-10-17T01:48:04;16.00;99.90
19665;DHT22;9980;51.020;7.772;2022-10-17T01:50:39;16.00;99.90
19665;DHT22;9980;51.020;7.772;2022-10-17T01:53:15;16.00;99.90
19665;DHT22;9980;51.020;7.772;2022-10-17T01:55:49;16.00;99.90
19665;DHT22;9980;51.020;7.772;2022-10-17T01:59:24;16.00;99.90
19665;DHT22;9980;51.020;7.772;2022-10-17T02:01:24;16.00;99.90
19665;DHT22;9980;51.020;7.772;2022-10-17T02:03:55;15.90;99.90
19665;DHT22;9980;51.020;7.772;2022-10-17T02:06:25;15.90;99.90
19665;DHT22;9980;51.020;7.772;2022-10-17T02:08:52;15.90;99.90
19665;DHT22;9980;51.020;7.772;2022-10-17T02:20:43;15.80;99.90
19665;DHT22;9980;51.020;7.772;2022-10-17T02:26:29;15.80;99.90
19665;DHT22;9980;51.020;7.772;2022-10-17T02:29:19;15.80;99.90
19665;DHT22;9980;51.020;7.772;2022-10-17T02:32:06;15.70;99.90
19665;DHT22;9980;51.020;7.772;2022-10-17T02:34:40;15.70;99.90
19665;DHT22;9980;51.020;7.772;2022-10-17T02:37:12;15.70;99.90
19665;DHT22;9980;51.020;7.772;2022-10-17T02:39:42;15.70;99.90
19665;DHT22;9980;51.020;7.772;2022-10-17T02:42:12;15.60;99.90
19665;DHT22;9980;51.020;7.772;2022-10-17T02:44:42;15.60;99.90
19665;DHT22;9980;51.020;7.772;2022-10-17T02:47:36;15.60;99.90
19665;DHT22;9980;51.020;7.772;2022-10-17T02:50:10;15.60;99.90
19665;DHT22;9980;51.020;7.772;2022-10-17T02:55:23;15.50;99.90
19665;DHT22;9980;51.020;7.772;2022-10-17T02:58:05;15.50;99.90
19665;DHT22;9980;51.020;7.772;2022-10-17T03:00:38;15.50;99.90
19665;DHT22;9980;51.020;7.772;2022-10-17T03:03:29;15.40;99.90
19665;DHT22;9980;51.020;7.772;2022-10-17T03:06:01;15.40;99.90
19665;DHT22;9980;51.020;7.772;2022-10-17T03:08:28;15.40;99.90
19665;DHT22;9980;51.020;7.772;2022-10-17T03:10:55;15.40;99.90
19665;DHT22;9980;51.020;7.772;2022-10-17T03:13:23;15.30;99.90
19665;DHT22;9980;51.020;7.772;2022-10-17T03:15:50;15.30;99.90
19665;DHT22;9980;51.020;7.772;2022-10-17T03:18:16;15.30;99.90
19665;DHT22;9980;51.020;7.772;2022-10-17T03:20:45;15.20;99.90
19665;DHT22;9980;51.020;7.772;2022-10-17T03:23:13;15.20;99.90
19665;DHT22;9980;51.020;7.772;2022-10-17T03:25:40;15.20;99.90
19665;DHT22;9980;51.020;7.772;2022-10-17T03:28:08;15.20;99.90
19665;DHT22;9980;51.020;7.772;2022-10-17T03:30:37;15.20;99.90
19665;DHT22;9980;51.020;7.772;2022-10-17T03:33:05;15.20;99.90
19665;DHT22;9980;51.020;7.772;2022-10-17T03:35:31;15.10;99.90
19665;DHT22;9980;51.020;7.772;2022-10-17T03:37:59;15.10;99.90
19665;DHT22;9980;51.020;7.772;2022-10-17T03:40:27;15.10;99.90
19665;DHT22;9980;51.020;7.772;2022-10-17T03:42:54;15.10;99.90
19665;DHT22;9980;51.020;7.772;2022-10-17T03:45:21;15.10;99.90
19665;DHT22;9980;51.020;7.772;2022-10-17T03:47:49;15.00;99.90
19665;DHT22;9980;51.020;7.772;2022-10-17T03:50:16;15.00;99.90
19665;DHT22;9980;51.020;7.772;2022-10-17T03:52:47;15.00;99.90
19665;DHT22;9980;51.020;7.772;2022-10-17T03:55:15;15.00;99.90
19665;DHT22;9980;51.020;7.772;2022-10-17T03:57:43;15.00;99.90
19665;DHT22;9980;51.020;7.772;2022-10-17T04:00:12;15.00;99.90
19665;DHT22;9980;51.020;7.772;2022-10-17T04:02:40;14.90;99.90
19665;DHT22;9980;51.020;7.772;2022-10-17T04:05:10;14.90;99.90
19665;DHT22;9980;51.020;7.772;2022-10-17T04:07:37;14.90;99.90
19665;DHT22;9980;51.020;7.772;2022-10-17T04:10:05;14.90;99.90
19665;DHT22;9980;51.020;7.772;2022-10-17T04:12:33;14.90;99.90
19665;DHT22;9980;51.020;7.772;2022-10-17T04:15:00;14.90;99.90
19665;DHT22;9980;51.020;7.772;2022-10-17T04:17:29;14.80;99.90
19665;DHT22;9980;51.020;7.772;2022-10-17T04:20:04;14.80;99.90
19665;DHT22;9980;51.020;7.772;2022-10-17T04:22:31;14.80;99.90
19665;DHT22;9980;51.020;7.772;2022-10-17T04:24:58;14.80;99.90
19665;DHT22;9980;51.020;7.772;2022-10-17T04:27:41;14.80;99.90
19665;DHT22;9980;51.020;7.772;2022-10-17T04:30:08;14.80;99.90
19665;DHT22;9980;51.020;7.772;2022-10-17T04:32:36;14.80;99.90
19665;DHT22;9980;51.020;7.772;2022-10-17T04:35:12;14.70;99.90
19665;DHT22;9980;51.020;7.772;2022-10-17T04:37:45;14.70;99.90
19665;DHT22;9980;51.020;7.772;2022-10-17T04:40:16;14.70;99.90
19665;DHT22;9980;51.020;7.772;2022-10-17T04:42:44;14.70;99.90
19665;DHT22;9980;51.020;7.772;2022-10-17T04:45:14;14.70;99.90
19665;DHT22;9980;51.020;7.772;2022-10-17T04:47:42;14.70;99.90
19665;DHT22;9980;51.020;7.772;2022-10-17T04:50:09;14.70;99.90
19665;DHT22;9980;51.020;7.772;2022-10-17T04:52:37;14.70;99.90
19665;DHT22;9980;51.020;7.772;2022-10-17T04:55:07;14.70;99.90
19665;DHT22;9980;51.020;7.772;2022-10-17T04:57:36;14.60;99.90
19665;DHT22;9980;51.020;7.772;2022-10-17T05:00:11;14.60;99.90
19665;DHT22;9980;51.020;7.772;2022-10-17T05:02:50;14.60;99.90
19665;DHT22;9980;51.020;7.772;2022-10-17T05:05:19;14.60;99.90
19665;DHT22;9980;51.020;7.772;2022-10-17T05:07:49;14.60;99.90
19665;DHT22;9980;51.020;7.772;2022-10-17T05:10:18;14.60;99.90
19665;DHT22;9980;51.020;7.772;2022-10-17T05:12:48;14.60;99.90
19665;DHT22;9980;51.020;7.772;2022-10-17T05:15:17;14.50;99.90
19665;DHT22;9980;51.020;7.772;2022-10-17T05:17:44;14.50;99.90
19665;DHT22;9980;51.020;7.772;2022-10-17T05:20:12;14.50;99.90
19665;DHT22;9980;51.020;7.772;2022-10-17T05:22:40;14.50;99.90
19665;DHT22;9980;51.020;7.772;2022-10-17T05:25:09;14.50;99.90
19665;DHT22;9980;51.020;7.772;2022-10-17T05:27:36;14.50;99.90
19665;DHT22;9980;51.020;7.772;2022-10-17T05:30:04;14.50;99.90
19665;DHT22;9980;51.020;7.772;2022-10-17T05:32:33;14.50;99.90
19665;DHT22;9980;51.020;7.772;2022-10-17T05:35:01;14.50;99.90
19665;DHT22;9980;51.020;7.772;2022-10-17T05:37:30;14.40;99.90
19665;DHT22;9980;51.020;7.772;2022-10-17T05:39:59;14.40;99.90
19665;DHT22;9980;51.020;7.772;2022-10-17T05:42:28;14.40;99.90
19665;DHT22;9980;51.020;7.772;2022-10-17T05:44:56;14.40;99.90
19665;DHT22;9980;51.020;7.772;2022-10-17T05:47:24;14.40;99.90
19665;DHT22;9980;51.020;7.772;2022-10-17T05:49:52;14.40;99.90
19665;DHT22;9980;51.020;7.772;2022-10-17T05:52:25;14.40;99.90
19665;DHT22;9980;51.020;7.772;2022-10-17T05:55:12;14.40;99.90
19665;DHT22;9980;51.020;7.772;2022-10-17T05:57:39;14.40;99.90
19665;DHT22;9980;51.020;7.772;2022-10-17T06:00:11;14.30;99.90
19665;DHT22;9980;51.020;7.772;2022-10-17T06:02:45;14.30;99.90
19665;DHT22;9980;51.020;7.772;2022-10-17T06:05:14;14.30;99.90
19665;DHT22;9980;51.020;7.772;2022-10-17T06:07:42;14.30;99.90
19665;DHT22;9980;51.020;7.772;2022-10-17T06:10:11;14.30;99.90
19665;DHT22;9980;51.020;7.772;2022-10-17T06:12:41;14.30;99.90
19665;DHT22;9980;51.020;7.772;2022-10-17T06:15:10;14.30;99.90
19665;DHT22;9980;51.020;7.772;2022-10-17T06:17:41;14.30;99.90
19665;DHT22;9980;51.020;7.772;2022-10-17T06:20:08;14.30;99.90
19665;DHT22;9980;51.020;7.772;2022-10-17T06:22:36;14.30;99.90
19665;DHT22;9980;51.020;7.772;2022-10-17T06:25:07;14.40;99.90
19665;DHT22;9980;51.020;7.772;2022-10-17T06:27:35;14.40;99.90
19665;DHT22;9980;51.020;7.772;2022-10-17T06:30:02;14.40;99.90
19665;DHT22;9980;51.020;7.772;2022-10-17T06:32:30;14.40;99.90
19665;DHT22;9980;51.020;7.772;2022-10-17T06:34:58;14.40;99.90
19665;DHT22;9980;51.020;7.772;2022-10-17T06:37:30;14.50;99.90
19665;DHT22;9980;51.020;7.772;2022-10-17T06:40:05;14.50;99.90
19665;DHT22;9980;51.020;7.772;2022-10-17T06:42:35;14.50;99.90
19665;DHT22;9980;51.020;7.772;2022-10-17T06:45:07;14.60;99.90
19665;DHT22;9980;51.020;7.772;2022-10-17T06:47:41;14.60;99.90
19665;DHT22;9980;51.020;7.772;2022-10-17T06:50:25;14.70;99.90
19665;DHT22;9980;51.020;7.772;2022-10-17T06:53:32;14.70;99.90
19665;DHT22;9980;51.020;7.772;2022-10-17T06:56:29;14.80;99.90
19665;DHT22;9980;51.020;7.772;2022-10-17T06:59:17;14.90;99.90
19665;DHT22;9980;51.020;7.772;2022-10-17T07:01:51;14.90;99.90
19665;DHT22;9980;51.020;7.772;2022-10-17T07:04:18;15.00;99.90
19665;DHT22;9980;51.020;7.772;2022-10-17T07:06:45;15.00;99.90
19665;DHT22;9980;51.020;7.772;2022-10-17T07:09:17;15.10;99.90
19665;DHT22;9980;51.020;7.772;2022-10-17T07:11:45;15.20;99.90
19665;DHT22;9980;51.020;7.772;2022-10-17T07:14:16;15.20;99.90
19665;DHT22;9980;51.020;7.772;2022-10-17T07:16:43;15.30;99.90
19665;DHT22;9980;51.020;7.772;2022-10-17T07:19:17;15.40;99.90
19665;DHT22;9980;51.020;7.772;2022-10-17T07:21:44;15.40;99.90
19665;DHT22;9980;51.020;7.772;2022-10-17T07:24:11;15.50;99.90
19665;DHT22;9980;51.020;7.772;2022-10-17T07:26:42;15.60;99.90
19665;DHT22;9980;51.020;7.772;2022-10-17T07:29:09;15.60;99.90
19665;DHT22;9980;51.020;7.772;2022-10-17T07:31:43;15.70;99.90
19665;DHT22;9980;51.020;7.772;2022-10-17T07:34:14;15.80;99.90
19665;DHT22;9980;51.020;7.772;2022-10-17T07:36:41;15.90;99.90
19665;DHT22;9980;51.020;7.772;2022-10-17T07:39:10;16.00;99.90
19665;DHT22;9980;51.020;7.772;2022-10-17T07:41:38;16.10;99.90
19665;DHT22;9980;51.020;7.772;2022-10-17T07:44:05;16.30;99.90
19665;DHT22;9980;51.020;7.772;2022-10-17T07:46:38;16.40;99.90
19665;DHT22;9980;51.020;7.772;2022-10-17T07:49:05;16.50;99.90
19665;DHT22;9980;51.020;7.772;2022-10-17T07:51:32;16.60;99.90
19665;DHT22;9980;51.020;7.772;2022-10-17T07:53:59;16.80;99.90
19665;DHT22;9980;51.020;7.772;2022-10-17T07:56:26;16.90;99.90
19665;DHT22;9980;51.020;7.772;2022-10-17T07:58:56;17.10;99.90
19665;DHT22;9980;51.020;7.772;2022-10-17T08:01:22;17.20;99.90
19665;DHT22;9980;51.020;7.772;2022-10-17T08:03:51;17.40;99.90
19665;DHT22;9980;51.020;7.772;2022-10-17T08:06:18;17.60;99.90
19665;DHT22;9980;51.020;7.772;2022-10-17T08:08:45;17.70;99.90
19665;DHT22;9980;51.020;7.772;2022-10-17T08:11:13;17.80;99.90
19665;DHT22;9980;51.020;7.772;2022-10-17T08:13:41;18.00;99.90
19665;DHT22;9980;51.020;7.772;2022-10-17T08:16:10;18.10;99.90
19665;DHT22;9980;51.020;7.772;2022-10-17T08:18:40;18.20;99.90
19665;DHT22;9980;51.020;7.772;2022-10-17T08:21:10;18.30;99.90
19665;DHT22;9980;51.020;7.772;2022-10-17T08:23:39;18.50;99.90
19665;DHT22;9980;51.020;7.772;2022-10-17T08:26:07;18.60;99.90
19665;DHT22;9980;51.020;7.772;2022-10-17T08:28:37;18.70;99.90
19665;DHT22;9980;51.020;7.772;2022-10-17T08:31:11;18.80;99.90
19665;DHT22;9980;51.020;7.772;2022-10-17T08:33:40;18.90;99.90
19665;DHT22;9980;51.020;7.772;2022-10-17T08:36:08;19.00;99.90
19665;DHT22;9980;51.020;7.772;2022-10-17T08:38:37;19.20;99.90
19665;DHT22;9980;51.020;7.772;2022-10-17T08:41:18;19.30;99.90
19665;DHT22;9980;51.020;7.772;2022-10-17T08:43:59;19.40;99.90
19665;DHT22;9980;51.020;7.772;2022-10-17T08:46:31;19.50;99.90
19665;DHT22;9980;51.020;7.772;2022-10-17T08:49:18;19.60;99.90
19665;DHT22;9980;51.020;7.772;2022-10-17T08:52:03;19.70;99.90
19665;DHT22;9980;51.020;7.772;2022-10-17T08:54:42;19.80;99.90
19665;DHT22;9980;51.020;7.772;2022-10-17T08:57:16;19.90;99.90
19665;DHT22;9980;51.020;7.772;2022-10-17T08:59:44;20.10;99.90
19665;DHT22;9980;51.020;7.772;2022-10-17T09:05:23;20.20;99.90
19665;DHT22;9980;51.020;7.772;2022-10-17T09:22:56;20.90;99.90
19665;DHT22;9980;51.020;7.772;2022-10-17T09:25:27;20.90;99.90
19665;DHT22;9980;51.020;7.772;2022-10-17T09:28:13;21.00;99.90
19665;DHT22;9980;51.020;7.772;2022-10-17T09:30:47;21.10;99.90
19665;DHT22;9980;51.020;7.772;2022-10-17T09:33:43;21.20;99.90
19665;DHT22;9980;51.020;7.772;2022-10-17T09:36:30;21.30;99.90
19665;DHT22;9980;51.020;7.772;2022-10-17T09:39:03;21.30;99.90
19665;DHT22;9980;51.020;7.772;2022-10-17T09:41:52;21.40;99.90
19665;DHT22;9980;51.020;7.772;2022-10-17T09:44:39;21.40;99.90
19665;DHT22;9980;51.020;7.772;2022-10-17T09:50:32;21.50;99.90
19665;DHT22;9980;51.020;7.772;2022-10-17T09:53:14;21.50;99.90
19665;DHT22;9980;51.020;7.772;2022-10-17T09:55:54;21.60;99.90
19665;DHT22;9980;51.020;7.772;2022-10-17T09:58:39;21.60;99.90
19665;DHT22;9980;51.020;7.772;2022-10-17T10:04:14;21.70;99.90
19665;DHT22;9980;51.020;7.772;2022-10-17T10:07:04;21.70;99.90
19665;DHT22;9980;51.020;7.772;2022-10-17T10:09:33;21.80;99.90
19665;DHT22;9980;51.020;7.772;2022-10-17T10:12:17;21.90;99.90
19665;DHT22;9980;51.020;7.772;2022-10-17T10:14:58;22.00;99.90
19665;DHT22;9980;51.020;7.772;2022-10-17T10:17:39;22.00;99.90
19665;DHT22;9980;51.020;7.772;2022-10-17T10:20:36;22.10;99.60
19665;DHT22;9980;51.020;7.772;2022-10-17T10:23:13;22.20;99.80
19665;DHT22;9980;51.020;7.772;2022-10-17T10:25:51;22.20;99.60
19665;DHT22;9980;51.020;7.772;2022-10-17T10:28:31;22.20;99.60
19665;DHT22;9980;51.020;7.772;2022-10-17T10:31:07;22.30;99.30
19665;DHT22;9980;51.020;7.772;2022-10-17T10:33:41;22.40;99.40
19665;DHT22;9980;51.020;7.772;2022-10-17T10:36:15;22.40;99.30
19665;DHT22;9980;51.020;7.772;2022-10-17T10:38:52;22.50;99.40
19665;DHT22;9980;51.020;7.772;2022-10-17T10:41:22;22.60;99.00
19665;DHT22;9980;51.020;7.772;2022-10-17T10:43:50;22.60;99.10
19665;DHT22;9980;51.020;7.772;2022-10-17T10:46:28;22.60;98.90
19665;DHT22;9980;51.020;7.772;2022-10-17T10:48:58;22.70;99.00
19665;DHT22;9980;51.020;7.772;2022-10-17T10:51:40;22.80;99.00
19665;DHT22;9980;51.020;7.772;2022-10-17T10:54:18;22.80;98.70
19665;DHT22;9980;51.020;7.772;2022-10-17T10:56:52;22.90;98.60
19665;DHT22;9980;51.020;7.772;2022-10-17T10:59:41;23.00;98.80
19665;DHT22;9980;51.020;7.772;2022-10-17T11:02:23;23.10;98.50
19665;DHT22;9980;51.020;7.772;2022-10-17T11:08:04;23.20;98.60
19665;DHT22;9980;51.020;7.772;2022-10-17T11:11:17;23.30;98.00
19665;DHT22;9980;51.020;7.772;2022-10-17T11:14:08;23.30;97.90
19665;DHT22;9980;51.020;7.772;2022-10-17T11:22:43;23.50;97.70
19665;DHT22;9980;51.020;7.772;2022-10-17T11:27:57;23.50;97.70
19665;DHT22;9980;51.020;7.772;2022-10-17T11:31:00;23.60;97.70
19665;DHT22;9980;51.020;7.772;2022-10-17T11:36:24;23.80;97.30
19665;DHT22;9980;51.020;7.772;2022-10-17T11:39:02;23.80;97.30
19665;DHT22;9980;51.020;7.772;2022-10-17T11:41:39;23.90;97.10
19665;DHT22;9980;51.020;7.772;2022-10-17T11:44:33;23.90;96.90
19665;DHT22;9980;51.020;7.772;2022-10-17T11:47:22;24.10;97.20
19665;DHT22;9980;51.020;7.772;2022-10-17T11:50:21;24.10;97.30
19665;DHT22;9980;51.020;7.772;2022-10-17T11:53:48;24.20;96.90
19665;DHT22;9980;51.020;7.772;2022-10-17T11:59:47;24.40;96.80
19665;DHT22;9980;51.020;7.772;2022-10-17T12:03:03;24.50;96.70
19665;DHT22;9980;51.020;7.772;2022-10-17T12:10:55;24.60;96.40
19665;DHT22;9980;51.020;7.772;2022-10-17T12:21:26;24.80;95.80
19665;DHT22;9980;51.020;7.772;2022-10-17T12:23:57;24.80;96.10
19665;DHT22;9980;51.020;7.772;2022-10-17T12:26:27;24.80;95.90
19665;DHT22;9980;51.020;7.772;2022-10-17T12:28:56;24.80;95.90
19665;DHT22;9980;51.020;7.772;2022-10-17T12:31:24;24.80;95.60
19665;DHT22;9980;51.020;7.772;2022-10-17T12:34:03;24.80;95.50
19665;DHT22;9980;51.020;7.772;2022-10-17T12:49:47;24.90;95.30
19665;DHT22;9980;51.020;7.772;2022-10-17T12:52:55;24.90;95.10
19665;DHT22;9980;51.020;7.772;2022-10-17T12:55:30;24.90;95.10
19665;DHT22;9980;51.020;7.772;2022-10-17T12:58:05;24.90;95.00
19665;DHT22;9980;51.020;7.772;2022-10-17T13:00:56;24.90;95.10
19665;DHT22;9980;51.020;7.772;2022-10-17T13:03:47;24.90;95.00
19665;DHT22;9980;51.020;7.772;2022-10-17T13:06:24;24.80;94.90
19665;DHT22;9980;51.020;7.772;2022-10-17T13:09:03;24.80;94.90
19665;DHT22;9980;51.020;7.772;2022-10-17T13:11:35;24.80;95.10
19665;DHT22;9980;51.020;7.772;2022-10-17T13:14:11;24.80;95.40
19665;DHT22;9980;51.020;7.772;2022-10-17T13:16:53;24.80;95.30
19665;DHT22;9980;51.020;7.772;2022-10-17T13:19:23;24.80;95.20
19665;DHT22;9980;51.020;7.772;2022-10-17T13:22:02;24.80;95.20
19665;DHT22;9980;51.020;7.772;2022-10-17T13:24:36;24.80;95.00
19665;DHT22;9980;51.020;7.772;2022-10-17T13:27:20;24.80;95.30
19665;DHT22;9980;51.020;7.772;2022-10-17T13:29:47;24.80;95.20
19665;DHT22;9980;51.020;7.772;2022-10-17T13:32:14;24.80;95.40
19665;DHT22;9980;51.020;7.772;2022-10-17T13:34:41;24.90;95.20
19665;DHT22;9980;51.020;7.772;2022-10-17T13:37:12;24.80;95.10
19665;DHT22;9980;51.020;7.772;2022-10-17T13:39:43;24.80;95.00
19665;DHT22;9980;51.020;7.772;2022-10-17T13:42:37;24.80;95.10
19665;DHT22;9980;51.020;7.772;2022-10-17T13:45:36;24.80;95.10
19665;DHT22;9980;51.020;7.772;2022-10-17T13:48:06;24.80;95.10
19665;DHT22;9980;51.020;7.772;2022-10-17T13:50:47;24.80;95.10
19665;DHT22;9980;51.020;7.772;2022-10-17T13:53:23;24.80;95.20
19665;DHT22;9980;51.020;7.772;2022-10-17T13:55:59;24.80;95.00
19665;DHT22;9980;51.020;7.772;2022-10-17T13:58:48;24.70;94.90
19665;DHT22;9980;51.020;7.772;2022-10-17T14:01:24;24.70;95.00
19665;DHT22;9980;51.020;7.772;2022-10-17T14:03:53;24.60;95.00
19665;DHT22;9980;51.020;7.772;2022-10-17T14:06:33;24.60;95.10
19665;DHT22;9980;51.020;7.772;2022-10-17T14:09:30;24.50;95.10
19665;DHT22;9980;51.020;7.772;2022-10-17T14:12:06;24.50;95.10
19665;DHT22;9980;51.020;7.772;2022-10-17T14:14:40;24.40;95.20
19665;DHT22;9980;51.020;7.772;2022-10-17T14:17:33;24.40;95.20
19665;DHT22;9980;51.020;7.772;2022-10-17T14:20:03;24.40;95.30
19665;DHT22;9980;51.020;7.772;2022-10-17T14:22:51;24.30;95.30
19665;DHT22;9980;51.020;7.772;2022-10-17T14:25:39;24.20;95.40
19665;DHT22;9980;51.020;7.772;2022-10-17T14:30:37;24.10;95.70
19665;DHT22;9980;51.020;7.772;2022-10-17T14:33:27;24.10;95.70
19665;DHT22;9980;51.020;7.772;2022-10-17T14:35:59;24.10;95.60
19665;DHT22;9980;51.020;7.772;2022-10-17T14:38:28;24.00;95.70
19665;DHT22;9980;51.020;7.772;2022-10-17T14:41:01;24.00;95.80
19665;DHT22;9980;51.020;7.772;2022-10-17T14:44:00;24.00;95.80
19665;DHT22;9980;51.020;7.772;2022-10-17T14:46:29;24.00;95.60
19665;DHT22;9980;51.020;7.772;2022-10-17T14:49:07;24.00;95.70
19665;DHT22;9980;51.020;7.772;2022-10-17T14:52:08;23.90;95.60
19665;DHT22;9980;51.020;7.772;2022-10-17T14:54:48;23.90;95.70
19665;DHT22;9980;51.020;7.772;2022-10-17T14:57:21;23.90;95.70
19665;DHT22;9980;51.020;7.772;2022-10-17T14:59:54;23.90;96.10
19665;DHT22;9980;51.020;7.772;2022-10-17T15:02:28;23.80;95.80
19665;DHT22;9980;51.020;7.772;2022-10-17T15:04:56;23.80;95.90
19665;DHT22;9980;51.020;7.772;2022-10-17T15:07:23;23.80;96.00
19665;DHT22;9980;51.020;7.772;2022-10-17T15:09:51;23.80;96.10
19665;DHT22;9980;51.020;7.772;2022-10-17T15:12:22;23.70;96.20
19665;DHT22;9980;51.020;7.772;2022-10-17T15:14:51;23.70;96.30
19665;DHT22;9980;51.020;7.772;2022-10-17T15:17:29;23.70;96.30
19665;DHT22;9980;51.020;7.772;2022-10-17T15:19:57;23.70;96.20
19665;DHT22;9980;51.020;7.772;2022-10-17T15:22:24;23.70;96.20
19665;DHT22;9980;51.020;7.772;2022-10-17T15:24:51;23.70;96.20
19665;DHT22;9980;51.020;7.772;2022-10-17T15:27:21;23.60;96.30
19665;DHT22;9980;51.020;7.772;2022-10-17T15:29:49;23.60;96.30
19665;DHT22;9980;51.020;7.772;2022-10-17T15:32:17;23.60;96.30
19665;DHT22;9980;51.020;7.772;2022-10-17T15:34:44;23.60;96.30
19665;DHT22;9980;51.020;7.772;2022-10-17T15:37:32;23.50;96.20
19665;DHT22;9980;51.020;7.772;2022-10-17T15:39:59;23.50;96.20
19665;DHT22;9980;51.020;7.772;2022-10-17T15:42:28;23.50;96.30
19665;DHT22;9980;51.020;7.772;2022-10-17T15:44:56;23.40;96.30
19665;DHT22;9980;51.020;7.772;2022-10-17T15:47:27;23.40;96.30
19665;DHT22;9980;51.020;7.772;2022-10-17T15:49:57;23.40;96.30
19665;DHT22;9980;51.020;7.772;2022-10-17T15:52:25;23.30;96.30
19665;DHT22;9980;51.020;7.772;2022-10-17T15:54:53;23.30;96.30
19665;DHT22;9980;51.020;7.772;2022-10-17T15:57:27;23.30;96.40
19665;DHT22;9980;51.020;7.772;2022-10-17T15:59:58;23.30;96.60
19665;DHT22;9980;51.020;7.772;2022-10-17T16:02:26;23.20;96.60
19665;DHT22;9980;51.020;7.772;2022-10-17T16:04:53;23.20;96.70
19665;DHT22;9980;51.020;7.772;2022-10-17T16:07:20;23.10;96.80
19665;DHT22;9980;51.020;7.772;2022-10-17T16:09:47;23.10;96.90
19665;DHT22;9980;51.020;7.772;2022-10-17T16:12:22;23.10;97.00
19665;DHT22;9980;51.020;7.772;2022-10-17T16:14:53;23.10;97.10
19665;DHT22;9980;51.020;7.772;2022-10-17T16:17:21;23.00;97.00
19665;DHT22;9980;51.020;7.772;2022-10-17T16:19:47;23.00;97.10
19665;DHT22;9980;51.020;7.772;2022-10-17T16:22:32;22.90;97.20
19665;DHT22;9980;51.020;7.772;2022-10-17T16:25:04;22.90;97.30
19665;DHT22;9980;51.020;7.772;2022-10-17T16:27:36;22.80;97.30
19665;DHT22;9980;51.020;7.772;2022-10-17T16:30:04;22.80;97.20
19665;DHT22;9980;51.020;7.772;2022-10-17T16:32:33;22.70;97.30
19665;DHT22;9980;51.020;7.772;2022-10-17T16:35:00;22.70;97.40
19665;DHT22;9980;51.020;7.772;2022-10-17T16:37:27;22.60;97.40
19665;DHT22;9980;51.020;7.772;2022-10-17T16:39:53;22.60;97.50
19665;DHT22;9980;51.020;7.772;2022-10-17T16:42:21;22.50;97.50
19665;DHT22;9980;51.020;7.772;2022-10-17T16:44:49;22.50;97.60
19665;DHT22;9980;51.020;7.772;2022-10-17T16:47:17;22.40;97.60
19665;DHT22;9980;51.020;7.772;2022-10-17T16:49:44;22.40;97.70
19665;DHT22;9980;51.020;7.772;2022-10-17T16:52:12;22.30;97.80
19665;DHT22;9980;51.020;7.772;2022-10-17T16:54:39;22.30;97.80
19665;DHT22;9980;51.020;7.772;2022-10-17T16:57:06;22.30;97.90
19665;DHT22;9980;51.020;7.772;2022-10-17T16:59:33;22.20;98.00
19665;DHT22;9980;51.020;7.772;2022-10-17T17:02:00;22.20;98.10
19665;DHT22;9980;51.020;7.772;2022-10-17T17:04:27;22.20;98.20
19665;DHT22;9980;51.020;7.772;2022-10-17T17:06:54;22.10;98.30
19665;DHT22;9980;51.020;7.772;2022-10-17T17:09:21;22.10;98.40
19665;DHT22;9980;51.020;7.772;2022-10-17T17:11:48;22.00;98.40
19665;DHT22;9980;51.020;7.772;2022-10-17T17:14:15;22.00;98.50
19665;DHT22;9980;51.020;7.772;2022-10-17T17:16:42;22.00;98.50
19665;DHT22;9980;51.020;7.772;2022-10-17T17:19:13;22.00;98.60
19665;DHT22;9980;51.020;7.772;2022-10-17T17:21:42;21.90;98.70
19665;DHT22;9980;51.020;7.772;2022-10-17T17:24:17;21.90;98.70
19665;DHT22;9980;51.020;7.772;2022-10-17T17:26:54;21.90;98.80
19665;DHT22;9980;51.020;7.772;2022-10-17T17:29:23;21.90;98.90
19665;DHT22;9980;51.020;7.772;2022-10-17T17:31:50;21.80;98.90
19665;DHT22;9980;51.020;7.772;2022-10-17T17:34:17;21.80;98.90
19665;DHT22;9980;51.020;7.772;2022-10-17T17:36:44;21.80;99.00
19665;DHT22;9980;51.020;7.772;2022-10-17T17:39:12;21.80;99.10
19665;DHT22;9980;51.020;7.772;2022-10-17T17:41:41;21.70;99.10
19665;DHT22;9980;51.020;7.772;2022-10-17T17:44:11;21.70;99.10
19665;DHT22;9980;51.020;7.772;2022-10-17T17:46:42;21.70;99.20
19665;DHT22;9980;51.020;7.772;2022-10-17T17:49:10;21.60;99.10
19665;DHT22;9980;51.020;7.772;2022-10-17T17:51:38;21.60;99.10
19665;DHT22;9980;51.020;7.772;2022-10-17T17:54:07;21.60;99.20
19665;DHT22;9980;51.020;7.772;2022-10-17T17:56:37;21.50;99.20
19665;DHT22;9980;51.020;7.772;2022-10-17T17:59:04;21.50;99.20
19665;DHT22;9980;51.020;7.772;2022-10-17T18:01:33;21.50;99.20
19665;DHT22;9980;51.020;7.772;2022-10-17T18:04:06;21.40;99.30
19665;DHT22;9980;51.020;7.772;2022-10-17T18:06:35;21.40;99.30
19665;DHT22;9980;51.020;7.772;2022-10-17T18:09:05;21.30;99.30